Terminal Aerodrome Forecast
Issued by NWS Mt. Holly, NJ

Home | Current Version | Previous Version | Text Only | Print | Product List | Glossary On
Versions: 1 2 3 4 5 6 7 8 9 10 11 12 13 14 15
000
FTUS41 KPHI 270520
TAFTTN
TAF
KTTN 270520Z 2706/2806 30004KT P6SM SCT060
     FM270900 33008KT P6SM BKN060
     FM271700 34012G20KT P6SM BKN050
     FM280100 34010KT P6SM SCT120=

USA.gov is the U.S. government's official web portal to all federal, state and local government web resources and services.